sensor_id;sensor_type;location;lat;lon;timestamp;P1;durP1;ratioP1;P2;durP2;ratioP2
1300;SDS011;59099;48.806;9.160;2022-10-16T00:02:05;3.10;;;1.80;;
1300;SDS011;59099;48.806;9.160;2022-10-16T00:04:31;1.57;;;1.47;;
1300;SDS011;59099;48.806;9.160;2022-10-16T00:06:57;2.37;;;1.77;;
1300;SDS011;59099;48.806;9.160;2022-10-16T00:09:22;3.00;;;2.07;;
1300;SDS011;59099;48.806;9.160;2022-10-16T00:11:48;3.60;;;1.90;;
1300;SDS011;59099;48.806;9.160;2022-10-16T00:14:15;1.87;;;1.77;;
1300;SDS011;59099;48.806;9.160;2022-10-16T00:16:41;3.90;;;1.80;;
1300;SDS011;59099;48.806;9.160;2022-10-16T00:19:07;3.23;;;1.80;;
1300;SDS011;59099;48.806;9.160;2022-10-16T00:21:35;3.80;;;1.63;;
1300;SDS011;59099;48.806;9.160;2022-10-16T00:24:02;5.30;;;1.70;;
1300;SDS011;59099;48.806;9.160;2022-10-16T00:26:30;2.40;;;1.53;;
1300;SDS011;59099;48.806;9.160;2022-10-16T00:28:57;2.40;;;1.70;;
1300;SDS011;59099;48.806;9.160;2022-10-16T00:31:23;3.03;;;1.57;;
1300;SDS011;59099;48.806;9.160;2022-10-16T00:33:50;5.40;;;1.50;;
1300;SDS011;59099;48.806;9.160;2022-10-16T00:36:17;3.80;;;2.10;;
1300;SDS011;59099;48.806;9.160;2022-10-16T00:38:44;3.73;;;2.00;;
1300;SDS011;59099;48.806;9.160;2022-10-16T00:41:12;3.27;;;1.67;;
1300;SDS011;59099;48.806;9.160;2022-10-16T00:43:44;8.13;;;2.57;;
1300;SDS011;59099;48.806;9.160;2022-10-16T00:49:11;4.30;;;1.90;;
1300;SDS011;59099;48.806;9.160;2022-10-16T00:51:41;3.80;;;1.87;;
1300;SDS011;59099;48.806;9.160;2022-10-16T00:56:51;3.00;;;1.57;;
1300;SDS011;59099;48.806;9.160;2022-10-16T00:59:20;2.97;;;1.43;;
1300;SDS011;59099;48.806;9.160;2022-10-16T01:01:50;3.57;;;1.63;;
1300;SDS011;59099;48.806;9.160;2022-10-16T01:04:17;2.77;;;1.90;;
1300;SDS011;59099;48.806;9.160;2022-10-16T01:06:52;5.63;;;2.13;;
1300;SDS011;59099;48.806;9.160;2022-10-16T01:10:09;3.00;;;2.10;;
1300;SDS011;59099;48.806;9.160;2022-10-16T01:15:42;5.97;;;1.93;;
1300;SDS011;59099;48.806;9.160;2022-10-16T01:21:00;8.20;;;2.10;;
1300;SDS011;59099;48.806;9.160;2022-10-16T01:31:29;8.33;;;1.90;;
1300;SDS011;59099;48.806;9.160;2022-10-16T01:34:02;3.50;;;1.80;;
1300;SDS011;59099;48.806;9.160;2022-10-16T01:36:50;3.00;;;1.87;;
1300;SDS011;59099;48.806;9.160;2022-10-16T01:39:21;5.23;;;1.93;;
1300;SDS011;59099;48.806;9.160;2022-10-16T01:41:55;4.47;;;1.97;;
1300;SDS011;59099;48.806;9.160;2022-10-16T01:44:34;1.70;;;1.60;;
1300;SDS011;59099;48.806;9.160;2022-10-16T01:47:02;1.50;;;1.40;;
1300;SDS011;59099;48.806;9.160;2022-10-16T01:49:31;5.17;;;1.90;;
1300;SDS011;59099;48.806;9.160;2022-10-16T01:52:00;2.80;;;1.93;;
1300;SDS011;59099;48.806;9.160;2022-10-16T01:54:30;2.87;;;1.47;;
1300;SDS011;59099;48.806;9.160;2022-10-16T01:56:58;5.73;;;1.60;;
1300;SDS011;59099;48.806;9.160;2022-10-16T01:59:25;2.57;;;1.80;;
1300;SDS011;59099;48.806;9.160;2022-10-16T02:01:58;3.30;;;1.73;;
1300;SDS011;59099;48.806;9.160;2022-10-16T02:04:28;4.13;;;1.93;;
1300;SDS011;59099;48.806;9.160;2022-10-16T02:06:59;4.17;;;1.90;;
1300;SDS011;59099;48.806;9.160;2022-10-16T02:14:46;3.20;;;1.87;;
1300;SDS011;59099;48.806;9.160;2022-10-16T02:17:16;3.80;;;1.80;;
1300;SDS011;59099;48.806;9.160;2022-10-16T02:19:43;1.90;;;1.60;;
1300;SDS011;59099;48.806;9.160;2022-10-16T02:23:02;7.00;;;2.00;;
1300;SDS011;59099;48.806;9.160;2022-10-16T02:25:16;3.27;;;2.10;;
1300;SDS011;59099;48.806;9.160;2022-10-16T02:28:40;5.23;;;2.00;;
1300;SDS011;59099;48.806;9.160;2022-10-16T02:30:55;2.70;;;1.63;;
1300;SDS011;59099;48.806;9.160;2022-10-16T02:33:28;5.90;;;1.77;;
1300;SDS011;59099;48.806;9.160;2022-10-16T02:35:55;4.50;;;1.70;;
1300;SDS011;59099;48.806;9.160;2022-10-16T02:38:23;1.23;;;1.10;;
1300;SDS011;59099;48.806;9.160;2022-10-16T02:40:49;3.03;;;1.87;;
1300;SDS011;59099;48.806;9.160;2022-10-16T02:43:15;2.17;;;1.83;;
1300;SDS011;59099;48.806;9.160;2022-10-16T02:45:41;2.60;;;2.13;;
1300;SDS011;59099;48.806;9.160;2022-10-16T02:48:07;3.37;;;1.50;;
1300;SDS011;59099;48.806;9.160;2022-10-16T02:50:33;5.73;;;1.87;;
1300;SDS011;59099;48.806;9.160;2022-10-16T02:52:59;3.80;;;2.40;;
1300;SDS011;59099;48.806;9.160;2022-10-16T02:55:25;6.70;;;2.30;;
1300;SDS011;59099;48.806;9.160;2022-10-16T02:57:53;4.93;;;1.80;;
1300;SDS011;59099;48.806;9.160;2022-10-16T03:00:19;3.80;;;1.60;;
1300;SDS011;59099;48.806;9.160;2022-10-16T03:05:27;4.37;;;2.40;;
1300;SDS011;59099;48.806;9.160;2022-10-16T03:07:53;3.30;;;1.87;;
1300;SDS011;59099;48.806;9.160;2022-10-16T03:10:18;3.70;;;2.07;;
1300;SDS011;59099;48.806;9.160;2022-10-16T03:12:44;3.47;;;2.20;;
1300;SDS011;59099;48.806;9.160;2022-10-16T03:15:10;2.07;;;1.90;;
1300;SDS011;59099;48.806;9.160;2022-10-16T03:17:36;4.10;;;2.10;;
1300;SDS011;59099;48.806;9.160;2022-10-16T03:20:02;2.37;;;1.77;;
1300;SDS011;59099;48.806;9.160;2022-10-16T03:22:28;4.00;;;2.10;;
1300;SDS011;59099;48.806;9.160;2022-10-16T03:24:54;6.67;;;2.30;;
1300;SDS011;59099;48.806;9.160;2022-10-16T03:27:20;6.23;;;2.43;;
1300;SDS011;59099;48.806;9.160;2022-10-16T03:29:46;4.83;;;2.07;;
1300;SDS011;59099;48.806;9.160;2022-10-16T03:32:11;2.67;;;1.83;;
1300;SDS011;59099;48.806;9.160;2022-10-16T03:34:37;3.37;;;1.80;;
1300;SDS011;59099;48.806;9.160;2022-10-16T03:37:03;7.33;;;2.00;;
1300;SDS011;59099;48.806;9.160;2022-10-16T03:39:30;3.70;;;2.00;;
1300;SDS011;59099;48.806;9.160;2022-10-16T03:41:56;1.80;;;1.70;;
1300;SDS011;59099;48.806;9.160;2022-10-16T03:44:24;7.03;;;1.90;;
1300;SDS011;59099;48.806;9.160;2022-10-16T03:46:50;2.80;;;1.60;;
1300;SDS011;59099;48.806;9.160;2022-10-16T03:49:16;9.23;;;2.17;;
1300;SDS011;59099;48.806;9.160;2022-10-16T03:51:41;6.23;;;1.50;;
1300;SDS011;59099;48.806;9.160;2022-10-16T03:54:07;4.67;;;2.07;;
1300;SDS011;59099;48.806;9.160;2022-10-16T03:56:34;3.17;;;2.00;;
1300;SDS011;59099;48.806;9.160;2022-10-16T03:59:01;2.20;;;2.00;;
1300;SDS011;59099;48.806;9.160;2022-10-16T04:01:27;4.60;;;1.87;;
1300;SDS011;59099;48.806;9.160;2022-10-16T04:03:58;3.17;;;1.70;;
1300;SDS011;59099;48.806;9.160;2022-10-16T04:06:24;4.80;;;2.77;;
1300;SDS011;59099;48.806;9.160;2022-10-16T04:08:50;4.07;;;1.87;;
1300;SDS011;59099;48.806;9.160;2022-10-16T04:11:15;3.43;;;1.70;;
1300;SDS011;59099;48.806;9.160;2022-10-16T04:13:41;5.20;;;2.53;;
1300;SDS011;59099;48.806;9.160;2022-10-16T04:16:08;3.03;;;1.63;;
1300;SDS011;59099;48.806;9.160;2022-10-16T04:18:33;2.10;;;1.90;;
1300;SDS011;59099;48.806;9.160;2022-10-16T04:21:04;2.93;;;2.10;;
1300;SDS011;59099;48.806;9.160;2022-10-16T04:23:31;1.80;;;1.60;;
1300;SDS011;59099;48.806;9.160;2022-10-16T04:25:56;5.77;;;2.17;;
1300;SDS011;59099;48.806;9.160;2022-10-16T04:33:27;5.33;;;2.00;;
1300;SDS011;59099;48.806;9.160;2022-10-16T04:38:35;2.47;;;1.90;;
1300;SDS011;59099;48.806;9.160;2022-10-16T04:41:03;1.77;;;1.40;;
1300;SDS011;59099;48.806;9.160;2022-10-16T04:43:29;6.73;;;2.57;;
1300;SDS011;59099;48.806;9.160;2022-10-16T04:45:54;1.50;;;1.40;;
1300;SDS011;59099;48.806;9.160;2022-10-16T04:48:24;1.87;;;1.77;;
1300;SDS011;59099;48.806;9.160;2022-10-16T04:50:50;2.10;;;1.50;;
1300;SDS011;59099;48.806;9.160;2022-10-16T04:53:15;4.73;;;2.10;;
1300;SDS011;59099;48.806;9.160;2022-10-16T04:55:41;6.80;;;2.00;;
1300;SDS011;59099;48.806;9.160;2022-10-16T04:58:10;2.17;;;1.70;;
1300;SDS011;59099;48.806;9.160;2022-10-16T05:00:38;3.03;;;2.00;;
1300;SDS011;59099;48.806;9.160;2022-10-16T05:03:04;1.97;;;1.63;;
1300;SDS011;59099;48.806;9.160;2022-10-16T05:05:33;1.90;;;1.67;;
1300;SDS011;59099;48.806;9.160;2022-10-16T05:07:59;3.07;;;2.20;;
1300;SDS011;59099;48.806;9.160;2022-10-16T05:10:24;4.70;;;1.80;;
1300;SDS011;59099;48.806;9.160;2022-10-16T05:12:50;2.77;;;1.90;;
1300;SDS011;59099;48.806;9.160;2022-10-16T05:15:16;1.80;;;1.70;;
1300;SDS011;59099;48.806;9.160;2022-10-16T05:17:43;2.90;;;1.77;;
1300;SDS011;59099;48.806;9.160;2022-10-16T05:20:09;3.17;;;2.30;;
1300;SDS011;59099;48.806;9.160;2022-10-16T05:22:35;1.80;;;1.70;;
1300;SDS011;59099;48.806;9.160;2022-10-16T05:25:01;2.27;;;1.80;;
1300;SDS011;59099;48.806;9.160;2022-10-16T05:27:28;3.30;;;1.73;;
1300;SDS011;59099;48.806;9.160;2022-10-16T05:29:53;2.33;;;1.90;;
1300;SDS011;59099;48.806;9.160;2022-10-16T05:32:19;7.40;;;2.00;;
1300;SDS011;59099;48.806;9.160;2022-10-16T05:34:45;3.57;;;1.80;;
1300;SDS011;59099;48.806;9.160;2022-10-16T05:37:11;2.20;;;1.80;;
1300;SDS011;59099;48.806;9.160;2022-10-16T05:39:40;1.70;;;1.60;;
1300;SDS011;59099;48.806;9.160;2022-10-16T05:42:06;2.70;;;1.80;;
1300;SDS011;59099;48.806;9.160;2022-10-16T05:44:33;2.47;;;1.70;;
1300;SDS011;59099;48.806;9.160;2022-10-16T05:46:59;2.97;;;2.00;;
1300;SDS011;59099;48.806;9.160;2022-10-16T05:49:28;3.57;;;1.97;;
1300;SDS011;59099;48.806;9.160;2022-10-16T05:51:54;5.43;;;2.00;;
1300;SDS011;59099;48.806;9.160;2022-10-16T05:54:19;5.60;;;1.47;;
1300;SDS011;59099;48.806;9.160;2022-10-16T05:56:45;2.63;;;2.07;;
1300;SDS011;59099;48.806;9.160;2022-10-16T05:59:11;5.00;;;2.03;;
1300;SDS011;59099;48.806;9.160;2022-10-16T06:01:36;5.10;;;2.00;;
1300;SDS011;59099;48.806;9.160;2022-10-16T06:04:02;2.43;;;2.23;;
1300;SDS011;59099;48.806;9.160;2022-10-16T06:06:28;7.10;;;5.40;;
1300;SDS011;59099;48.806;9.160;2022-10-16T06:08:55;3.97;;;2.10;;
1300;SDS011;59099;48.806;9.160;2022-10-16T06:11:23;4.80;;;2.40;;
1300;SDS011;59099;48.806;9.160;2022-10-16T06:13:54;4.60;;;2.57;;
1300;SDS011;59099;48.806;9.160;2022-10-16T06:16:25;6.27;;;2.47;;
1300;SDS011;59099;48.806;9.160;2022-10-16T06:18:51;3.10;;;1.80;;
1300;SDS011;59099;48.806;9.160;2022-10-16T06:21:20;9.17;;;2.40;;
1300;SDS011;59099;48.806;9.160;2022-10-16T06:23:47;5.53;;;2.57;;
1300;SDS011;59099;48.806;9.160;2022-10-16T06:26:15;4.43;;;2.27;;
1300;SDS011;59099;48.806;9.160;2022-10-16T06:28:43;7.10;;;1.90;;
1300;SDS011;59099;48.806;9.160;2022-10-16T06:31:09;4.17;;;2.40;;
1300;SDS011;59099;48.806;9.160;2022-10-16T06:33:37;8.03;;;3.20;;
1300;SDS011;59099;48.806;9.160;2022-10-16T06:36:04;2.80;;;2.10;;
1300;SDS011;59099;48.806;9.160;2022-10-16T06:38:32;3.37;;;2.37;;
1300;SDS011;59099;48.806;9.160;2022-10-16T06:40:58;3.13;;;2.40;;
1300;SDS011;59099;48.806;9.160;2022-10-16T06:43:30;6.93;;;2.33;;
1300;SDS011;59099;48.806;9.160;2022-10-16T06:46:03;3.50;;;3.03;;
1300;SDS011;59099;48.806;9.160;2022-10-16T06:48:31;3.07;;;2.33;;
1300;SDS011;59099;48.806;9.160;2022-10-16T06:53:34;5.90;;;2.17;;
1300;SDS011;59099;48.806;9.160;2022-10-16T06:56:13;3.90;;;1.90;;
1300;SDS011;59099;48.806;9.160;2022-10-16T06:58:48;2.57;;;2.10;;
1300;SDS011;59099;48.806;9.160;2022-10-16T07:01:15;2.97;;;2.30;;
1300;SDS011;59099;48.806;9.160;2022-10-16T07:03:43;2.53;;;1.87;;
1300;SDS011;59099;48.806;9.160;2022-10-16T07:06:10;3.80;;;1.73;;
1300;SDS011;59099;48.806;9.160;2022-10-16T07:08:38;7.07;;;2.57;;
1300;SDS011;59099;48.806;9.160;2022-10-16T07:11:09;3.03;;;2.30;;
1300;SDS011;59099;48.806;9.160;2022-10-16T07:13:40;4.57;;;2.20;;
1300;SDS011;59099;48.806;9.160;2022-10-16T07:18:35;4.23;;;2.73;;
1300;SDS011;59099;48.806;9.160;2022-10-16T07:21:09;4.40;;;2.57;;
1300;SDS011;59099;48.806;9.160;2022-10-16T07:23:36;3.53;;;2.50;;
1300;SDS011;59099;48.806;9.160;2022-10-16T07:26:03;3.00;;;2.03;;
1300;SDS011;59099;48.806;9.160;2022-10-16T07:28:29;3.33;;;2.43;;
1300;SDS011;59099;48.806;9.160;2022-10-16T07:31:03;4.63;;;2.67;;
1300;SDS011;59099;48.806;9.160;2022-10-16T07:33:36;3.90;;;2.57;;
1300;SDS011;59099;48.806;9.160;2022-10-16T07:36:03;4.80;;;3.43;;
1300;SDS011;59099;48.806;9.160;2022-10-16T07:38:30;4.47;;;3.13;;
1300;SDS011;59099;48.806;9.160;2022-10-16T07:40:57;4.37;;;3.80;;
1300;SDS011;59099;48.806;9.160;2022-10-16T07:43:23;4.00;;;3.37;;
1300;SDS011;59099;48.806;9.160;2022-10-16T07:45:50;5.03;;;3.27;;
1300;SDS011;59099;48.806;9.160;2022-10-16T07:48:16;4.83;;;3.53;;
1300;SDS011;59099;48.806;9.160;2022-10-16T07:50:43;5.67;;;3.77;;
1300;SDS011;59099;48.806;9.160;2022-10-16T07:53:10;6.80;;;4.50;;
1300;SDS011;59099;48.806;9.160;2022-10-16T07:55:36;7.30;;;4.00;;
1300;SDS011;59099;48.806;9.160;2022-10-16T07:58:03;7.43;;;4.00;;
1300;SDS011;59099;48.806;9.160;2022-10-16T08:00:30;4.53;;;3.50;;
1300;SDS011;59099;48.806;9.160;2022-10-16T08:02:59;3.00;;;2.80;;
1300;SDS011;59099;48.806;9.160;2022-10-16T08:05:26;4.93;;;3.43;;
1300;SDS011;59099;48.806;9.160;2022-10-16T08:07:52;5.73;;;3.17;;
1300;SDS011;59099;48.806;9.160;2022-10-16T08:10:18;3.60;;;2.97;;
1300;SDS011;59099;48.806;9.160;2022-10-16T08:12:46;3.50;;;3.20;;
1300;SDS011;59099;48.806;9.160;2022-10-16T08:15:12;4.60;;;2.93;;
1300;SDS011;59099;48.806;9.160;2022-10-16T08:17:38;2.70;;;2.43;;
1300;SDS011;59099;48.806;9.160;2022-10-16T08:20:04;3.43;;;3.10;;
1300;SDS011;59099;48.806;9.160;2022-10-16T08:22:30;2.90;;;2.27;;
1300;SDS011;59099;48.806;9.160;2022-10-16T08:24:56;3.43;;;2.43;;
1300;SDS011;59099;48.806;9.160;2022-10-16T08:27:23;2.67;;;2.47;;
1300;SDS011;59099;48.806;9.160;2022-10-16T08:29:48;5.87;;;2.50;;
1300;SDS011;59099;48.806;9.160;2022-10-16T08:32:15;7.80;;;2.37;;
1300;SDS011;59099;48.806;9.160;2022-10-16T08:34:46;2.97;;;2.37;;
1300;SDS011;59099;48.806;9.160;2022-10-16T08:37:13;2.93;;;2.13;;
1300;SDS011;59099;48.806;9.160;2022-10-16T08:39:39;4.57;;;2.60;;
1300;SDS011;59099;48.806;9.160;2022-10-16T08:50:25;3.37;;;2.10;;
1300;SDS011;59099;48.806;9.160;2022-10-16T08:52:53;2.80;;;2.20;;
1300;SDS011;59099;48.806;9.160;2022-10-16T08:55:36;2.63;;;2.27;;
1300;SDS011;59099;48.806;9.160;2022-10-16T08:58:10;4.03;;;2.10;;
1300;SDS011;59099;48.806;9.160;2022-10-16T09:00:41;2.07;;;1.80;;
1300;SDS011;59099;48.806;9.160;2022-10-16T09:06:06;3.83;;;2.17;;
1300;SDS011;59099;48.806;9.160;2022-10-16T09:11:38;2.90;;;1.90;;
1300;SDS011;59099;48.806;9.160;2022-10-16T09:14:39;2.80;;;1.97;;
1300;SDS011;59099;48.806;9.160;2022-10-16T09:23:18;2.00;;;1.47;;
1300;SDS011;59099;48.806;9.160;2022-10-16T09:25:50;5.43;;;2.20;;
1300;SDS011;59099;48.806;9.160;2022-10-16T09:28:17;4.67;;;1.80;;
1300;SDS011;59099;48.806;9.160;2022-10-16T09:30:44;11.63;;;2.60;;
1300;SDS011;59099;48.806;9.160;2022-10-16T09:33:11;1.97;;;1.77;;
1300;SDS011;59099;48.806;9.160;2022-10-16T09:38:29;1.80;;;1.70;;
1300;SDS011;59099;48.806;9.160;2022-10-16T09:40:56;2.23;;;1.20;;
1300;SDS011;59099;48.806;9.160;2022-10-16T09:43:27;3.50;;;1.77;;
1300;SDS011;59099;48.806;9.160;2022-10-16T09:46:01;4.20;;;1.57;;
1300;SDS011;59099;48.806;9.160;2022-10-16T09:48:36;1.43;;;1.33;;
1300;SDS011;59099;48.806;9.160;2022-10-16T09:51:05;1.83;;;1.73;;
1300;SDS011;59099;48.806;9.160;2022-10-16T09:53:42;2.10;;;1.67;;
1300;SDS011;59099;48.806;9.160;2022-10-16T09:56:10;4.47;;;1.97;;
1300;SDS011;59099;48.806;9.160;2022-10-16T09:58:49;2.80;;;1.37;;
1300;SDS011;59099;48.806;9.160;2022-10-16T10:01:20;2.97;;;1.73;;
1300;SDS011;59099;48.806;9.160;2022-10-16T10:03:47;3.53;;;1.63;;
1300;SDS011;59099;48.806;9.160;2022-10-16T10:06:25;3.07;;;2.27;;
1300;SDS011;59099;48.806;9.160;2022-10-16T10:14:21;3.13;;;2.03;;
1300;SDS011;59099;48.806;9.160;2022-10-16T10:17:12;3.13;;;1.63;;
1300;SDS011;59099;48.806;9.160;2022-10-16T10:19:52;3.67;;;1.70;;
1300;SDS011;59099;48.806;9.160;2022-10-16T10:22:39;8.97;;;2.43;;
1300;SDS011;59099;48.806;9.160;2022-10-16T10:38:54;1.90;;;1.80;;
1300;SDS011;59099;48.806;9.160;2022-10-16T10:58:11;6.00;;;1.50;;
1300;SDS011;59099;48.806;9.160;2022-10-16T11:00:42;1.60;;;1.10;;
1300;SDS011;59099;48.806;9.160;2022-10-16T11:08:35;1.57;;;1.10;;
1300;SDS011;59099;48.806;9.160;2022-10-16T11:14:17;2.60;;;1.43;;
1300;SDS011;59099;48.806;9.160;2022-10-16T11:20:40;2.60;;;1.50;;
1300;SDS011;59099;48.806;9.160;2022-10-16T11:22:59;3.10;;;1.27;;
1300;SDS011;59099;48.806;9.160;2022-10-16T11:25:33;1.83;;;1.67;;
1300;SDS011;59099;48.806;9.160;2022-10-16T11:28:19;3.47;;;1.70;;
1300;SDS011;59099;48.806;9.160;2022-10-16T11:31:02;1.47;;;1.37;;
1300;SDS011;59099;48.806;9.160;2022-10-16T11:36:39;1.40;;;1.30;;
1300;SDS011;59099;48.806;9.160;2022-10-16T11:39:32;1.60;;;1.43;;
1300;SDS011;59099;48.806;9.160;2022-10-16T11:48:07;1.87;;;1.60;;
1300;SDS011;59099;48.806;9.160;2022-10-16T11:50:45;3.47;;;1.37;;
1300;SDS011;59099;48.806;9.160;2022-10-16T11:53:31;1.50;;;1.40;;
1300;SDS011;59099;48.806;9.160;2022-10-16T11:56:11;1.40;;;1.33;;
1300;SDS011;59099;48.806;9.160;2022-10-16T11:58:45;1.70;;;1.20;;
1300;SDS011;59099;48.806;9.160;2022-10-16T12:04:39;2.37;;;1.30;;
1300;SDS011;59099;48.806;9.160;2022-10-16T12:10:10;2.80;;;1.40;;
1300;SDS011;59099;48.806;9.160;2022-10-16T12:12:44;1.40;;;1.30;;
1300;SDS011;59099;48.806;9.160;2022-10-16T12:15:23;1.40;;;1.30;;
1300;SDS011;59099;48.806;9.160;2022-10-16T12:17:51;2.20;;;1.40;;
1300;SDS011;59099;48.806;9.160;2022-10-16T12:20:30;1.93;;;1.30;;
1300;SDS011;59099;48.806;9.160;2022-10-16T12:25:35;3.50;;;1.47;;
1300;SDS011;59099;48.806;9.160;2022-10-16T12:28:27;1.90;;;1.23;;
1300;SDS011;59099;48.806;9.160;2022-10-16T12:33:24;1.77;;;1.40;;
1300;SDS011;59099;48.806;9.160;2022-10-16T12:35:59;1.47;;;1.20;;
1300;SDS011;59099;48.806;9.160;2022-10-16T12:41:04;1.67;;;1.53;;
1300;SDS011;59099;48.806;9.160;2022-10-16T12:48:42;1.60;;;1.50;;
1300;SDS011;59099;48.806;9.160;2022-10-16T12:51:55;1.23;;;1.03;;
1300;SDS011;59099;48.806;9.160;2022-10-16T12:56:35;2.33;;;1.40;;
1300;SDS011;59099;48.806;9.160;2022-10-16T12:59:12;1.27;;;1.17;;
1300;SDS011;59099;48.806;9.160;2022-10-16T13:02:09;2.20;;;1.30;;
1300;SDS011;59099;48.806;9.160;2022-10-16T13:05:12;1.40;;;1.13;;
1300;SDS011;59099;48.806;9.160;2022-10-16T13:07:48;2.73;;;1.90;;
1300;SDS011;59099;48.806;9.160;2022-10-16T13:13:06;1.77;;;1.20;;
1300;SDS011;59099;48.806;9.160;2022-10-16T13:16:02;2.40;;;1.50;;
1300;SDS011;59099;48.806;9.160;2022-10-16T13:18:46;1.60;;;1.50;;
1300;SDS011;59099;48.806;9.160;2022-10-16T13:24:14;1.43;;;1.33;;
1300;SDS011;59099;48.806;9.160;2022-10-16T13:27:00;2.03;;;1.83;;
1300;SDS011;59099;48.806;9.160;2022-10-16T13:29:34;2.00;;;1.73;;
1300;SDS011;59099;48.806;9.160;2022-10-16T13:32:01;1.60;;;1.50;;
1300;SDS011;59099;48.806;9.160;2022-10-16T13:34:46;1.70;;;1.60;;
1300;SDS011;59099;48.806;9.160;2022-10-16T13:37:18;2.30;;;1.67;;
1300;SDS011;59099;48.806;9.160;2022-10-16T13:39:46;3.73;;;1.30;;
1300;SDS011;59099;48.806;9.160;2022-10-16T13:42:27;3.40;;;1.40;;
1300;SDS011;59099;48.806;9.160;2022-10-16T13:44:55;1.37;;;1.27;;
1300;SDS011;59099;48.806;9.160;2022-10-16T13:47:25;2.33;;;2.10;;
1300;SDS011;59099;48.806;9.160;2022-10-16T13:50:26;4.10;;;1.80;;
1300;SDS011;59099;48.806;9.160;2022-10-16T13:52:45;3.07;;;1.50;;
1300;SDS011;59099;48.806;9.160;2022-10-16T13:55:14;3.10;;;1.80;;
1300;SDS011;59099;48.806;9.160;2022-10-16T13:57:42;1.70;;;1.60;;
1300;SDS011;59099;48.806;9.160;2022-10-16T14:00:22;1.60;;;1.50;;
1300;SDS011;59099;48.806;9.160;2022-10-16T14:02:51;2.13;;;1.63;;
1300;SDS011;59099;48.806;9.160;2022-10-16T14:05:22;1.80;;;1.70;;
1300;SDS011;59099;48.806;9.160;2022-10-16T14:07:49;1.73;;;1.47;;
1300;SDS011;59099;48.806;9.160;2022-10-16T14:10:26;2.07;;;1.87;;
1300;SDS011;59099;48.806;9.160;2022-10-16T14:13:03;3.03;;;1.70;;
1300;SDS011;59099;48.806;9.160;2022-10-16T14:16:02;2.43;;;1.60;;
1300;SDS011;59099;48.806;9.160;2022-10-16T14:18:44;1.90;;;1.43;;
1300;SDS011;59099;48.806;9.160;2022-10-16T14:21:16;2.13;;;1.93;;
1300;SDS011;59099;48.806;9.160;2022-10-16T14:23:43;2.70;;;1.73;;
1300;SDS011;59099;48.806;9.160;2022-10-16T14:28:35;1.63;;;1.53;;
1300;SDS011;59099;48.806;9.160;2022-10-16T14:33:52;2.10;;;1.90;;
1300;SDS011;59099;48.806;9.160;2022-10-16T14:36:19;3.33;;;2.00;;
1300;SDS011;59099;48.806;9.160;2022-10-16T14:38:56;1.77;;;1.67;;
1300;SDS011;59099;48.806;9.160;2022-10-16T14:41:25;2.23;;;1.80;;
1300;SDS011;59099;48.806;9.160;2022-10-16T14:43:56;2.50;;;2.13;;
1300;SDS011;59099;48.806;9.160;2022-10-16T14:46:31;2.47;;;2.00;;
1300;SDS011;59099;48.806;9.160;2022-10-16T14:49:02;1.97;;;1.73;;
1300;SDS011;59099;48.806;9.160;2022-10-16T14:51:36;2.87;;;2.13;;
1300;SDS011;59099;48.806;9.160;2022-10-16T14:54:03;2.87;;;1.60;;
1300;SDS011;59099;48.806;9.160;2022-10-16T14:56:30;1.93;;;1.77;;
1300;SDS011;59099;48.806;9.160;2022-10-16T14:59:00;2.27;;;1.70;;
1300;SDS011;59099;48.806;9.160;2022-10-16T15:01:27;2.80;;;2.07;;
1300;SDS011;59099;48.806;9.160;2022-10-16T15:03:54;3.70;;;2.20;;
1300;SDS011;59099;48.806;9.160;2022-10-16T15:06:20;2.93;;;2.00;;
1300;SDS011;59099;48.806;9.160;2022-10-16T15:08:47;4.20;;;2.43;;
1300;SDS011;59099;48.806;9.160;2022-10-16T15:11:15;3.23;;;2.17;;
1300;SDS011;59099;48.806;9.160;2022-10-16T15:13:42;5.17;;;2.30;;
1300;SDS011;59099;48.806;9.160;2022-10-16T15:16:10;3.23;;;2.33;;
1300;SDS011;59099;48.806;9.160;2022-10-16T15:18:37;2.33;;;2.23;;
1300;SDS011;59099;48.806;9.160;2022-10-16T15:21:03;6.70;;;3.10;;
1300;SDS011;59099;48.806;9.160;2022-10-16T15:23:29;3.57;;;2.83;;
1300;SDS011;59099;48.806;9.160;2022-10-16T15:26:01;2.60;;;2.40;;
1300;SDS011;59099;48.806;9.160;2022-10-16T15:28:28;5.53;;;3.00;;
1300;SDS011;59099;48.806;9.160;2022-10-16T15:30:55;5.90;;;2.43;;
1300;SDS011;59099;48.806;9.160;2022-10-16T15:33:25;2.83;;;2.60;;
1300;SDS011;59099;48.806;9.160;2022-10-16T15:35:58;3.03;;;2.73;;
1300;SDS011;59099;48.806;9.160;2022-10-16T15:38:25;3.33;;;2.63;;
1300;SDS011;59099;48.806;9.160;2022-10-16T15:40:52;6.00;;;3.53;;
1300;SDS011;59099;48.806;9.160;2022-10-16T15:43:18;5.17;;;2.27;;
1300;SDS011;59099;48.806;9.160;2022-10-16T15:45:46;2.90;;;2.30;;
1300;SDS011;59099;48.806;9.160;2022-10-16T15:48:30;4.57;;;2.20;;
1300;SDS011;59099;48.806;9.160;2022-10-16T15:50:57;6.40;;;2.30;;
1300;SDS011;59099;48.806;9.160;2022-10-16T15:53:23;4.63;;;3.90;;
1300;SDS011;59099;48.806;9.160;2022-10-16T15:55:49;14.90;;;8.63;;
1300;SDS011;59099;48.806;9.160;2022-10-16T15:58:16;9.37;;;8.20;;
1300;SDS011;59099;48.806;9.160;2022-10-16T16:00:43;6.53;;;5.00;;
1300;SDS011;59099;48.806;9.160;2022-10-16T16:03:10;8.40;;;4.90;;
1300;SDS011;59099;48.806;9.160;2022-10-16T16:05:39;3.97;;;3.60;;
1300;SDS011;59099;48.806;9.160;2022-10-16T16:08:08;6.50;;;4.40;;
1300;SDS011;59099;48.806;9.160;2022-10-16T16:11:12;4.40;;;3.40;;
1300;SDS011;59099;48.806;9.160;2022-10-16T16:13:52;5.17;;;3.03;;
1300;SDS011;59099;48.806;9.160;2022-10-16T16:16:30;8.30;;;3.17;;
1300;SDS011;59099;48.806;9.160;2022-10-16T16:19:13;5.73;;;3.00;;
1300;SDS011;59099;48.806;9.160;2022-10-16T16:21:52;8.73;;;2.90;;
1300;SDS011;59099;48.806;9.160;2022-10-16T16:24:21;4.90;;;2.97;;
1300;SDS011;59099;48.806;9.160;2022-10-16T16:27:16;5.40;;;2.60;;
1300;SDS011;59099;48.806;9.160;2022-10-16T16:30:02;9.67;;;3.17;;
1300;SDS011;59099;48.806;9.160;2022-10-16T16:32:46;5.80;;;2.90;;
1300;SDS011;59099;48.806;9.160;2022-10-16T16:35:24;6.57;;;3.00;;
1300;SDS011;59099;48.806;9.160;2022-10-16T16:37:53;8.30;;;3.07;;
1300;SDS011;59099;48.806;9.160;2022-10-16T16:40:27;6.43;;;3.23;;
1300;SDS011;59099;48.806;9.160;2022-10-16T16:43:17;8.30;;;3.80;;
1300;SDS011;59099;48.806;9.160;2022-10-16T16:46:05;8.50;;;2.90;;
1300;SDS011;59099;48.806;9.160;2022-10-16T16:49:00;6.00;;;3.07;;
1300;SDS011;59099;48.806;9.160;2022-10-16T16:54:54;9.43;;;3.50;;
1300;SDS011;59099;48.806;9.160;2022-10-16T16:57:19;10.03;;;3.23;;
1300;SDS011;59099;48.806;9.160;2022-10-16T16:59:45;10.43;;;3.00;;
1300;SDS011;59099;48.806;9.160;2022-10-16T17:02:13;5.13;;;2.63;;
1300;SDS011;59099;48.806;9.160;2022-10-16T17:04:38;5.73;;;3.00;;
1300;SDS011;59099;48.806;9.160;2022-10-16T17:07:04;6.90;;;3.03;;
1300;SDS011;59099;48.806;9.160;2022-10-16T17:09:31;6.57;;;3.67;;
1300;SDS011;59099;48.806;9.160;2022-10-16T17:11:59;7.53;;;3.37;;
1300;SDS011;59099;48.806;9.160;2022-10-16T17:14:25;12.40;;;4.30;;
1300;SDS011;59099;48.806;9.160;2022-10-16T17:16:51;5.80;;;3.47;;
1300;SDS011;59099;48.806;9.160;2022-10-16T17:19:23;4.40;;;3.40;;
1300;SDS011;59099;48.806;9.160;2022-10-16T17:21:51;5.53;;;4.10;;
1300;SDS011;59099;48.806;9.160;2022-10-16T17:24:18;6.03;;;3.33;;
1300;SDS011;59099;48.806;9.160;2022-10-16T17:26:45;8.87;;;3.37;;
1300;SDS011;59099;48.806;9.160;2022-10-16T17:29:13;7.13;;;3.13;;
1300;SDS011;59099;48.806;9.160;2022-10-16T17:31:39;5.40;;;4.03;;
1300;SDS011;59099;48.806;9.160;2022-10-16T17:34:07;9.90;;;4.00;;
1300;SDS011;59099;48.806;9.160;2022-10-16T17:36:35;5.60;;;3.70;;
1300;SDS011;59099;48.806;9.160;2022-10-16T17:39:04;5.67;;;4.20;;
1300;SDS011;59099;48.806;9.160;2022-10-16T17:41:32;4.53;;;4.10;;
1300;SDS011;59099;48.806;9.160;2022-10-16T17:43:58;11.43;;;4.40;;
1300;SDS011;59099;48.806;9.160;2022-10-16T17:46:24;6.67;;;4.87;;
1300;SDS011;59099;48.806;9.160;2022-10-16T17:48:52;6.07;;;3.67;;
1300;SDS011;59099;48.806;9.160;2022-10-16T17:51:23;9.53;;;4.07;;
1300;SDS011;59099;48.806;9.160;2022-10-16T17:53:52;9.43;;;5.70;;
1300;SDS011;59099;48.806;9.160;2022-10-16T17:56:25;12.67;;;4.40;;
1300;SDS011;59099;48.806;9.160;2022-10-16T17:58:54;5.87;;;4.03;;